createdAt,value
2022-12-08T00:12:40.649Z,86.1
2022-12-08T00:32:40.491Z,86.1
2022-12-08T00:52:40.523Z,86.0
2022-12-08T01:12:40.528Z,86.5
2022-12-08T01:32:40.527Z,86.4
2022-12-08T01:52:40.537Z,86.0
2022-12-08T02:12:40.626Z,87.3
2022-12-08T02:32:40.576Z,87.5
2022-12-08T02:52:40.597Z,87.7
2022-12-08T03:12:40.614Z,88.3
2022-12-08T03:32:40.597Z,87.8
2022-12-08T03:52:40.514Z,88.2
2022-12-08T04:12:40.539Z,89.1
2022-12-08T04:32:40.551Z,88.9
2022-12-08T04:52:40.568Z,89.6
2022-12-08T05:12:40.599Z,89.1
2022-12-08T05:32:40.598Z,89.6
2022-12-08T05:52:40.614Z,88.3
2022-12-08T06:12:40.636Z,89.2
2022-12-08T06:32:40.545Z,89.4
2022-12-08T06:52:40.754Z,89.4
2022-12-08T07:12:40.572Z,88.6
2022-12-08T07:32:40.629Z,89.4
2022-12-08T07:52:40.607Z,89.0
2022-12-08T08:12:40.620Z,89.4
2022-12-08T08:32:40.673Z,87.8
2022-12-08T08:52:40.711Z,86.7
2022-12-08T09:12:40.590Z,86.5
2022-12-08T09:32:40.582Z,85.8
2022-12-08T09:52:40.733Z,84.8
2022-12-08T10:12:40.618Z,83.3
2022-12-08T10:32:40.627Z,81.7
2022-12-08T10:52:40.713Z,82.8
2022-12-08T11:12:40.563Z,81.0
2022-12-08T11:32:40.588Z,79.4
2022-12-08T11:52:40.597Z,79.6
2022-12-08T12:12:40.621Z,79.7
2022-12-08T12:32:40.636Z,79.1
2022-12-08T12:52:40.641Z,78.8
2022-12-08T13:32:40.585Z,79.7
2022-12-08T13:52:40.599Z,79.3
2022-12-08T14:12:40.734Z,80.9
2022-12-08T14:32:40.567Z,83.8
2022-12-08T14:52:40.544Z,85.1
2022-12-08T15:12:40.554Z,84.7
2022-12-08T15:32:40.640Z,85.2
2022-12-08T15:52:40.705Z,85.2
2022-12-08T16:12:40.671Z,84.5
2022-12-08T16:32:40.628Z,86.5
2022-12-08T16:52:40.571Z,87.1
2022-12-08T17:12:40.571Z,86.7
2022-12-08T17:32:40.590Z,88.0
2022-12-08T17:52:40.647Z,88.8
2022-12-08T18:12:40.609Z,89.5
2022-12-08T18:32:40.624Z,90.5
2022-12-08T18:52:40.644Z,90.5
2022-12-08T19:12:40.774Z,90.7
2022-12-08T19:32:40.772Z,90.6
2022-12-08T19:52:40.585Z,89.4
2022-12-08T20:12:40.606Z,89.8
2022-12-08T20:32:40.621Z,89.6
2022-12-08T20:52:40.653Z,89.8
2022-12-08T21:12:40.671Z,89.6
2022-12-08T21:32:40.689Z,90.1
2022-12-08T21:52:40.687Z,90.0
2022-12-08T22:12:40.709Z,89.9
2022-12-08T22:32:40.765Z,90.6
2022-12-08T22:52:40.739Z,90.1
2022-12-08T23:12:40.752Z,90.3
2022-12-08T23:32:40.765Z,89.8
2022-12-08T23:52:40.784Z,90.5
